sensor_id;sensor_type;location;lat;lon;timestamp;temperature;humidity
6375;DHT22;35400;45.472;-122.822;2023-09-12T00:00:09;25.00;98.50
6375;DHT22;35400;45.472;-122.822;2023-09-12T00:02:40;24.90;98.70
6375;DHT22;35400;45.472;-122.822;2023-09-12T00:05:07;24.80;98.90
6375;DHT22;35400;45.472;-122.822;2023-09-12T00:07:35;24.80;98.90
6375;DHT22;35400;45.472;-122.822;2023-09-12T00:10:03;24.80;98.50
6375;DHT22;35400;45.472;-122.822;2023-09-12T00:12:29;24.90;98.70
6375;DHT22;35400;45.472;-122.822;2023-09-12T00:14:56;24.90;99.00
6375;DHT22;35400;45.472;-122.822;2023-09-12T00:17:39;25.00;99.00
6375;DHT22;35400;45.472;-122.822;2023-09-12T00:20:07;25.10;98.90
6375;DHT22;35400;45.472;-122.822;2023-09-12T00:22:34;25.10;99.40
6375;DHT22;35400;45.472;-122.822;2023-09-12T00:25:01;24.90;99.80
6375;DHT22;35400;45.472;-122.822;2023-09-12T00:27:28;24.90;99.90
6375;DHT22;35400;45.472;-122.822;2023-09-12T00:29:55;24.70;99.90
6375;DHT22;35400;45.472;-122.822;2023-09-12T00:32:21;24.60;99.90
6375;DHT22;35400;45.472;-122.822;2023-09-12T00:34:48;24.60;99.90
6375;DHT22;35400;45.472;-122.822;2023-09-12T00:37:15;24.60;99.90
6375;DHT22;35400;45.472;-122.822;2023-09-12T00:39:42;24.60;99.90
6375;DHT22;35400;45.472;-122.822;2023-09-12T00:42:09;24.60;99.90
6375;DHT22;35400;45.472;-122.822;2023-09-12T00:44:36;24.40;99.90
6375;DHT22;35400;45.472;-122.822;2023-09-12T00:47:03;24.30;99.90
6375;DHT22;35400;45.472;-122.822;2023-09-12T00:49:31;24.30;99.90
6375;DHT22;35400;45.472;-122.822;2023-09-12T00:51:59;24.30;99.90
6375;DHT22;35400;45.472;-122.822;2023-09-12T00:54:26;24.30;99.90
6375;DHT22;35400;45.472;-122.822;2023-09-12T00:56:53;24.20;99.90
6375;DHT22;35400;45.472;-122.822;2023-09-12T00:59:20;24.40;99.90
6375;DHT22;35400;45.472;-122.822;2023-09-12T01:01:47;24.40;99.90
6375;DHT22;35400;45.472;-122.822;2023-09-12T01:04:15;24.20;99.90
6375;DHT22;35400;45.472;-122.822;2023-09-12T01:06:42;24.30;99.90
6375;DHT22;35400;45.472;-122.822;2023-09-12T01:09:10;24.30;99.90
6375;DHT22;35400;45.472;-122.822;2023-09-12T01:11:37;24.30;99.90
6375;DHT22;35400;45.472;-122.822;2023-09-12T01:14:04;24.20;99.90
6375;DHT22;35400;45.472;-122.822;2023-09-12T01:16:31;24.10;99.90
6375;DHT22;35400;45.472;-122.822;2023-09-12T01:18:58;24.00;99.90
6375;DHT22;35400;45.472;-122.822;2023-09-12T01:27:28;23.90;99.90
6375;DHT22;35400;45.472;-122.822;2023-09-12T01:30:02;23.80;99.90
6375;DHT22;35400;45.472;-122.822;2023-09-12T01:32:33;23.70;99.90
6375;DHT22;35400;45.472;-122.822;2023-09-12T01:35:01;23.60;99.90
6375;DHT22;35400;45.472;-122.822;2023-09-12T01:37:31;23.60;99.90
6375;DHT22;35400;45.472;-122.822;2023-09-12T01:39:58;23.50;99.90
6375;DHT22;35400;45.472;-122.822;2023-09-12T01:42:29;23.40;99.90
6375;DHT22;35400;45.472;-122.822;2023-09-12T01:44:57;23.30;99.90
6375;DHT22;35400;45.472;-122.822;2023-09-12T01:47:25;23.20;99.90
6375;DHT22;35400;45.472;-122.822;2023-09-12T01:49:56;23.10;99.90
6375;DHT22;35400;45.472;-122.822;2023-09-12T01:52:25;23.00;99.90
6375;DHT22;35400;45.472;-122.822;2023-09-12T01:54:54;22.90;99.90
6375;DHT22;35400;45.472;-122.822;2023-09-12T01:57:21;22.90;99.90
6375;DHT22;35400;45.472;-122.822;2023-09-12T01:59:49;22.90;99.90
6375;DHT22;35400;45.472;-122.822;2023-09-12T02:02:17;22.80;99.90
6375;DHT22;35400;45.472;-122.822;2023-09-12T02:07:35;22.50;99.90
6375;DHT22;35400;45.472;-122.822;2023-09-12T02:10:03;22.50;99.90
6375;DHT22;35400;45.472;-122.822;2023-09-12T02:12:31;22.40;99.90
6375;DHT22;35400;45.472;-122.822;2023-09-12T02:14:58;22.30;99.90
6375;DHT22;35400;45.472;-122.822;2023-09-12T02:17:25;22.20;99.90
6375;DHT22;35400;45.472;-122.822;2023-09-12T02:19:52;22.10;99.90
6375;DHT22;35400;45.472;-122.822;2023-09-12T02:22:19;22.10;99.90
6375;DHT22;35400;45.472;-122.822;2023-09-12T02:24:46;22.00;99.90
6375;DHT22;35400;45.472;-122.822;2023-09-12T02:27:13;22.00;99.90
6375;DHT22;35400;45.472;-122.822;2023-09-12T02:29:40;22.00;99.90
6375;DHT22;35400;45.472;-122.822;2023-09-12T02:32:07;21.90;99.90
6375;DHT22;35400;45.472;-122.822;2023-09-12T02:34:34;21.90;99.90
6375;DHT22;35400;45.472;-122.822;2023-09-12T02:37:01;21.80;99.90
6375;DHT22;35400;45.472;-122.822;2023-09-12T02:39:28;21.80;99.90
6375;DHT22;35400;45.472;-122.822;2023-09-12T02:41:55;21.70;99.90
6375;DHT22;35400;45.472;-122.822;2023-09-12T02:44:22;21.70;99.90
6375;DHT22;35400;45.472;-122.822;2023-09-12T02:46:50;21.70;99.90
6375;DHT22;35400;45.472;-122.822;2023-09-12T02:49:16;21.70;99.90
6375;DHT22;35400;45.472;-122.822;2023-09-12T02:51:44;21.70;99.90
6375;DHT22;35400;45.472;-122.822;2023-09-12T02:54:11;21.70;99.90
6375;DHT22;35400;45.472;-122.822;2023-09-12T02:56:38;21.60;99.90
6375;DHT22;35400;45.472;-122.822;2023-09-12T02:59:05;21.60;99.90
6375;DHT22;35400;45.472;-122.822;2023-09-12T03:01:32;21.50;99.90
6375;DHT22;35400;45.472;-122.822;2023-09-12T03:03:59;21.50;99.90
6375;DHT22;35400;45.472;-122.822;2023-09-12T03:06:27;21.50;99.90
6375;DHT22;35400;45.472;-122.822;2023-09-12T03:08:55;21.60;99.90
6375;DHT22;35400;45.472;-122.822;2023-09-12T03:11:21;21.50;99.90
6375;DHT22;35400;45.472;-122.822;2023-09-12T03:13:48;21.40;99.90
6375;DHT22;35400;45.472;-122.822;2023-09-12T03:16:15;21.30;99.90
6375;DHT22;35400;45.472;-122.822;2023-09-12T03:18:42;21.30;99.90
6375;DHT22;35400;45.472;-122.822;2023-09-12T03:21:09;21.30;99.90
6375;DHT22;35400;45.472;-122.822;2023-09-12T03:23:36;21.20;99.90
6375;DHT22;35400;45.472;-122.822;2023-09-12T03:26:04;21.20;99.90
6375;DHT22;35400;45.472;-122.822;2023-09-12T03:28:32;21.10;99.90
6375;DHT22;35400;45.472;-122.822;2023-09-12T03:31:11;21.00;99.90
6375;DHT22;35400;45.472;-122.822;2023-09-12T03:33:39;21.00;99.90
6375;DHT22;35400;45.472;-122.822;2023-09-12T03:36:07;21.00;99.90
6375;DHT22;35400;45.472;-122.822;2023-09-12T03:38:35;20.90;99.90
6375;DHT22;35400;45.472;-122.822;2023-09-12T03:41:02;20.90;99.90
6375;DHT22;35400;45.472;-122.822;2023-09-12T03:43:30;20.90;99.90
6375;DHT22;35400;45.472;-122.822;2023-09-12T03:45:57;20.80;99.90
6375;DHT22;35400;45.472;-122.822;2023-09-12T03:48:24;20.80;99.90
6375;DHT22;35400;45.472;-122.822;2023-09-12T03:50:51;20.60;99.90
6375;DHT22;35400;45.472;-122.822;2023-09-12T03:53:18;20.60;99.90
6375;DHT22;35400;45.472;-122.822;2023-09-12T03:55:45;20.60;99.90
6375;DHT22;35400;45.472;-122.822;2023-09-12T03:58:11;20.40;99.90
6375;DHT22;35400;45.472;-122.822;2023-09-12T04:00:38;20.40;99.90
6375;DHT22;35400;45.472;-122.822;2023-09-12T04:03:05;20.30;99.90
6375;DHT22;35400;45.472;-122.822;2023-09-12T04:05:32;20.20;99.90
6375;DHT22;35400;45.472;-122.822;2023-09-12T04:07:59;20.20;99.90
6375;DHT22;35400;45.472;-122.822;2023-09-12T04:10:25;20.10;99.90
6375;DHT22;35400;45.472;-122.822;2023-09-12T04:12:52;20.00;99.90
6375;DHT22;35400;45.472;-122.822;2023-09-12T04:15:20;20.00;99.90
6375;DHT22;35400;45.472;-122.822;2023-09-12T04:17:46;19.90;99.90
6375;DHT22;35400;45.472;-122.822;2023-09-12T04:20:13;19.80;99.90
6375;DHT22;35400;45.472;-122.822;2023-09-12T04:22:42;19.80;99.90
6375;DHT22;35400;45.472;-122.822;2023-09-12T04:25:09;19.80;99.90
6375;DHT22;35400;45.472;-122.822;2023-09-12T04:27:36;19.80;99.90
6375;DHT22;35400;45.472;-122.822;2023-09-12T04:30:04;19.70;99.90
6375;DHT22;35400;45.472;-122.822;2023-09-12T04:32:32;19.70;99.90
6375;DHT22;35400;45.472;-122.822;2023-09-12T04:34:58;19.70;99.90
6375;DHT22;35400;45.472;-122.822;2023-09-12T04:37:25;19.60;99.90
6375;DHT22;35400;45.472;-122.822;2023-09-12T04:39:52;19.50;99.90
6375;DHT22;35400;45.472;-122.822;2023-09-12T04:42:20;19.40;99.90
6375;DHT22;35400;45.472;-122.822;2023-09-12T04:44:49;19.30;99.90
6375;DHT22;35400;45.472;-122.822;2023-09-12T04:47:16;19.30;99.90
6375;DHT22;35400;45.472;-122.822;2023-09-12T04:49:44;19.20;99.90
6375;DHT22;35400;45.472;-122.822;2023-09-12T04:52:11;19.20;99.90
6375;DHT22;35400;45.472;-122.822;2023-09-12T04:54:37;19.10;99.90
6375;DHT22;35400;45.472;-122.822;2023-09-12T04:57:04;19.00;99.90
6375;DHT22;35400;45.472;-122.822;2023-09-12T04:59:31;19.00;99.90
6375;DHT22;35400;45.472;-122.822;2023-09-12T05:01:59;18.90;99.90
6375;DHT22;35400;45.472;-122.822;2023-09-12T05:04:26;18.90;99.90
6375;DHT22;35400;45.472;-122.822;2023-09-12T05:06:52;18.80;99.90
6375;DHT22;35400;45.472;-122.822;2023-09-12T05:09:19;18.80;99.90
6375;DHT22;35400;45.472;-122.822;2023-09-12T05:11:46;18.70;99.90
6375;DHT22;35400;45.472;-122.822;2023-09-12T05:14:13;18.60;99.90
6375;DHT22;35400;45.472;-122.822;2023-09-12T05:16:40;18.60;99.90
6375;DHT22;35400;45.472;-122.822;2023-09-12T05:19:06;18.60;99.90
6375;DHT22;35400;45.472;-122.822;2023-09-12T05:21:34;18.50;99.90
6375;DHT22;35400;45.472;-122.822;2023-09-12T05:24:01;18.50;99.90
6375;DHT22;35400;45.472;-122.822;2023-09-12T05:26:28;18.40;99.90
6375;DHT22;35400;45.472;-122.822;2023-09-12T05:28:54;18.40;99.90
6375;DHT22;35400;45.472;-122.822;2023-09-12T05:31:21;18.30;99.90
6375;DHT22;35400;45.472;-122.822;2023-09-12T05:33:48;18.30;99.90
6375;DHT22;35400;45.472;-122.822;2023-09-12T05:36:15;18.20;99.90
6375;DHT22;35400;45.472;-122.822;2023-09-12T05:38:42;18.20;99.90
6375;DHT22;35400;45.472;-122.822;2023-09-12T05:41:09;18.10;99.90
6375;DHT22;35400;45.472;-122.822;2023-09-12T05:43:36;18.10;99.90
6375;DHT22;35400;45.472;-122.822;2023-09-12T05:46:03;18.00;99.90
6375;DHT22;35400;45.472;-122.822;2023-09-12T05:48:30;17.90;99.90
6375;DHT22;35400;45.472;-122.822;2023-09-12T05:50:57;17.90;99.90
6375;DHT22;35400;45.472;-122.822;2023-09-12T05:53:24;17.90;99.90
6375;DHT22;35400;45.472;-122.822;2023-09-12T05:55:51;17.80;99.90
6375;DHT22;35400;45.472;-122.822;2023-09-12T05:58:17;17.90;99.90
6375;DHT22;35400;45.472;-122.822;2023-09-12T06:00:44;17.80;99.90
6375;DHT22;35400;45.472;-122.822;2023-09-12T06:03:15;17.80;99.90
6375;DHT22;35400;45.472;-122.822;2023-09-12T06:05:42;17.80;99.90
6375;DHT22;35400;45.472;-122.822;2023-09-12T06:08:09;17.80;99.90
6375;DHT22;35400;45.472;-122.822;2023-09-12T06:10:36;17.90;99.90
6375;DHT22;35400;45.472;-122.822;2023-09-12T06:13:03;17.90;99.90
6375;DHT22;35400;45.472;-122.822;2023-09-12T06:15:29;17.90;99.90
6375;DHT22;35400;45.472;-122.822;2023-09-12T06:17:56;17.90;99.90
6375;DHT22;35400;45.472;-122.822;2023-09-12T06:20:23;17.90;99.90
6375;DHT22;35400;45.472;-122.822;2023-09-12T06:22:50;17.80;99.90
6375;DHT22;35400;45.472;-122.822;2023-09-12T06:25:17;17.90;99.90
6375;DHT22;35400;45.472;-122.822;2023-09-12T06:27:44;17.80;99.90
6375;DHT22;35400;45.472;-122.822;2023-09-12T06:30:11;17.80;99.90
6375;DHT22;35400;45.472;-122.822;2023-09-12T06:32:38;17.80;99.90
6375;DHT22;35400;45.472;-122.822;2023-09-12T06:35:05;17.80;99.90
6375;DHT22;35400;45.472;-122.822;2023-09-12T06:37:32;17.70;99.90
6375;DHT22;35400;45.472;-122.822;2023-09-12T06:39:59;17.70;99.90
6375;DHT22;35400;45.472;-122.822;2023-09-12T06:42:25;17.70;99.90
6375;DHT22;35400;45.472;-122.822;2023-09-12T06:44:52;17.70;99.90
6375;DHT22;35400;45.472;-122.822;2023-09-12T06:47:19;17.70;99.90
6375;DHT22;35400;45.472;-122.822;2023-09-12T06:49:46;17.70;99.90
6375;DHT22;35400;45.472;-122.822;2023-09-12T06:52:12;17.60;99.90
6375;DHT22;35400;45.472;-122.822;2023-09-12T06:54:39;17.60;99.90
6375;DHT22;35400;45.472;-122.822;2023-09-12T06:57:06;17.60;99.90
6375;DHT22;35400;45.472;-122.822;2023-09-12T06:59:33;17.50;99.90
6375;DHT22;35400;45.472;-122.822;2023-09-12T07:02:00;17.50;99.90
6375;DHT22;35400;45.472;-122.822;2023-09-12T07:04:27;17.50;99.90
6375;DHT22;35400;45.472;-122.822;2023-09-12T07:06:54;17.50;99.90
6375;DHT22;35400;45.472;-122.822;2023-09-12T07:09:20;17.50;99.90
6375;DHT22;35400;45.472;-122.822;2023-09-12T07:11:48;17.50;99.90
6375;DHT22;35400;45.472;-122.822;2023-09-12T07:14:15;17.50;99.90
6375;DHT22;35400;45.472;-122.822;2023-09-12T07:16:41;17.50;99.90
6375;DHT22;35400;45.472;-122.822;2023-09-12T07:19:08;17.50;99.90
6375;DHT22;35400;45.472;-122.822;2023-09-12T07:21:36;17.50;99.90
6375;DHT22;35400;45.472;-122.822;2023-09-12T07:24:03;17.40;99.90
6375;DHT22;35400;45.472;-122.822;2023-09-12T07:26:31;17.40;99.90
6375;DHT22;35400;45.472;-122.822;2023-09-12T07:28:58;17.40;99.90
6375;DHT22;35400;45.472;-122.822;2023-09-12T07:31:28;17.40;99.90
6375;DHT22;35400;45.472;-122.822;2023-09-12T07:33:55;17.40;99.90
6375;DHT22;35400;45.472;-122.822;2023-09-12T07:36:22;17.40;99.90
6375;DHT22;35400;45.472;-122.822;2023-09-12T07:38:49;17.40;99.90
6375;DHT22;35400;45.472;-122.822;2023-09-12T07:41:16;17.40;99.90
6375;DHT22;35400;45.472;-122.822;2023-09-12T07:43:42;17.40;99.90
6375;DHT22;35400;45.472;-122.822;2023-09-12T07:46:09;17.40;99.90
6375;DHT22;35400;45.472;-122.822;2023-09-12T07:48:36;17.40;99.90
6375;DHT22;35400;45.472;-122.822;2023-09-12T07:51:14;17.30;99.90
6375;DHT22;35400;45.472;-122.822;2023-09-12T07:53:41;17.30;99.90
6375;DHT22;35400;45.472;-122.822;2023-09-12T07:56:09;17.30;99.90
6375;DHT22;35400;45.472;-122.822;2023-09-12T07:58:38;17.30;99.90
6375;DHT22;35400;45.472;-122.822;2023-09-12T08:01:07;17.30;99.90
6375;DHT22;35400;45.472;-122.822;2023-09-12T08:03:35;17.20;99.90
6375;DHT22;35400;45.472;-122.822;2023-09-12T08:06:03;17.20;99.90
6375;DHT22;35400;45.472;-122.822;2023-09-12T08:08:31;17.20;99.90
6375;DHT22;35400;45.472;-122.822;2023-09-12T08:10:58;17.20;99.90
6375;DHT22;35400;45.472;-122.822;2023-09-12T08:13:28;17.10;99.90
6375;DHT22;35400;45.472;-122.822;2023-09-12T08:15:56;17.10;99.90
6375;DHT22;35400;45.472;-122.822;2023-09-12T08:18:30;17.10;99.90
6375;DHT22;35400;45.472;-122.822;2023-09-12T08:20:57;17.00;99.90
6375;DHT22;35400;45.472;-122.822;2023-09-12T08:23:24;17.00;99.90
6375;DHT22;35400;45.472;-122.822;2023-09-12T08:25:51;16.90;99.90
6375;DHT22;35400;45.472;-122.822;2023-09-12T08:28:18;16.90;99.90
6375;DHT22;35400;45.472;-122.822;2023-09-12T08:30:47;16.80;99.90
6375;DHT22;35400;45.472;-122.822;2023-09-12T08:33:14;16.80;99.90
6375;DHT22;35400;45.472;-122.822;2023-09-12T08:35:41;16.80;99.90
6375;DHT22;35400;45.472;-122.822;2023-09-12T08:38:08;16.70;99.90
6375;DHT22;35400;45.472;-122.822;2023-09-12T08:40:35;16.70;99.90
6375;DHT22;35400;45.472;-122.822;2023-09-12T08:43:02;16.70;99.90
6375;DHT22;35400;45.472;-122.822;2023-09-12T08:45:32;16.60;99.90
6375;DHT22;35400;45.472;-122.822;2023-09-12T08:48:00;16.60;99.90
6375;DHT22;35400;45.472;-122.822;2023-09-12T08:50:28;16.60;99.90
6375;DHT22;35400;45.472;-122.822;2023-09-12T08:53:00;16.50;99.90
6375;DHT22;35400;45.472;-122.822;2023-09-12T08:55:27;16.50;99.90
6375;DHT22;35400;45.472;-122.822;2023-09-12T08:57:55;16.50;99.90
6375;DHT22;35400;45.472;-122.822;2023-09-12T09:00:24;16.50;99.90
6375;DHT22;35400;45.472;-122.822;2023-09-12T09:02:52;16.50;99.90
6375;DHT22;35400;45.472;-122.822;2023-09-12T09:05:21;16.50;99.90
6375;DHT22;35400;45.472;-122.822;2023-09-12T09:07:51;16.50;99.90
6375;DHT22;35400;45.472;-122.822;2023-09-12T09:10:21;16.50;99.90
6375;DHT22;35400;45.472;-122.822;2023-09-12T09:12:48;16.50;99.90
6375;DHT22;35400;45.472;-122.822;2023-09-12T09:17:50;16.40;99.90
6375;DHT22;35400;45.472;-122.822;2023-09-12T09:20:32;16.40;99.90
6375;DHT22;35400;45.472;-122.822;2023-09-12T09:23:08;16.40;99.90
6375;DHT22;35400;45.472;-122.822;2023-09-12T09:25:42;16.40;99.90
6375;DHT22;35400;45.472;-122.822;2023-09-12T09:28:19;16.40;99.90
6375;DHT22;35400;45.472;-122.822;2023-09-12T09:30:48;16.40;99.90
6375;DHT22;35400;45.472;-122.822;2023-09-12T09:33:17;16.40;99.90
6375;DHT22;35400;45.472;-122.822;2023-09-12T09:35:47;16.30;99.90
6375;DHT22;35400;45.472;-122.822;2023-09-12T09:38:14;16.30;99.90
6375;DHT22;35400;45.472;-122.822;2023-09-12T09:40:43;16.30;99.90
6375;DHT22;35400;45.472;-122.822;2023-09-12T09:43:11;16.30;99.90
6375;DHT22;35400;45.472;-122.822;2023-09-12T09:45:45;16.30;99.90
6375;DHT22;35400;45.472;-122.822;2023-09-12T09:48:23;16.30;99.90
6375;DHT22;35400;45.472;-122.822;2023-09-12T09:50:51;16.20;99.90
6375;DHT22;35400;45.472;-122.822;2023-09-12T09:53:27;16.20;99.90
6375;DHT22;35400;45.472;-122.822;2023-09-12T09:56:08;16.20;99.90
6375;DHT22;35400;45.472;-122.822;2023-09-12T09:58:38;16.20;99.90
6375;DHT22;35400;45.472;-122.822;2023-09-12T10:01:09;16.20;99.90
6375;DHT22;35400;45.472;-122.822;2023-09-12T10:03:37;16.20;99.90
6375;DHT22;35400;45.472;-122.822;2023-09-12T10:06:04;16.20;99.90
6375;DHT22;35400;45.472;-122.822;2023-09-12T10:08:32;16.30;99.90
6375;DHT22;35400;45.472;-122.822;2023-09-12T10:11:01;16.20;99.90
6375;DHT22;35400;45.472;-122.822;2023-09-12T10:13:29;16.30;99.90
6375;DHT22;35400;45.472;-122.822;2023-09-12T10:16:00;16.20;99.90
6375;DHT22;35400;45.472;-122.822;2023-09-12T10:18:35;16.30;99.90
6375;DHT22;35400;45.472;-122.822;2023-09-12T10:21:11;16.30;99.90
6375;DHT22;35400;45.472;-122.822;2023-09-12T10:23:44;16.20;99.90
6375;DHT22;35400;45.472;-122.822;2023-09-12T10:26:13;16.20;99.90
6375;DHT22;35400;45.472;-122.822;2023-09-12T10:28:43;16.20;99.90
6375;DHT22;35400;45.472;-122.822;2023-09-12T10:31:12;16.30;99.90
6375;DHT22;35400;45.472;-122.822;2023-09-12T10:33:39;16.20;99.90
6375;DHT22;35400;45.472;-122.822;2023-09-12T10:36:08;16.20;99.90
6375;DHT22;35400;45.472;-122.822;2023-09-12T10:38:42;16.20;99.90
6375;DHT22;35400;45.472;-122.822;2023-09-12T10:41:14;16.20;99.90
6375;DHT22;35400;45.472;-122.822;2023-09-12T10:43:42;16.10;99.90
6375;DHT22;35400;45.472;-122.822;2023-09-12T10:46:09;16.10;99.90
6375;DHT22;35400;45.472;-122.822;2023-09-12T10:48:37;16.10;99.90
6375;DHT22;35400;45.472;-122.822;2023-09-12T10:51:07;16.10;99.90
6375;DHT22;35400;45.472;-122.822;2023-09-12T10:53:34;16.00;99.90
6375;DHT22;35400;45.472;-122.822;2023-09-12T10:56:22;16.00;99.90
6375;DHT22;35400;45.472;-122.822;2023-09-12T10:59:14;15.90;99.90
6375;DHT22;35400;45.472;-122.822;2023-09-12T11:01:43;15.90;99.90
6375;DHT22;35400;45.472;-122.822;2023-09-12T11:06:46;15.80;99.90
6375;DHT22;35400;45.472;-122.822;2023-09-12T11:09:23;15.80;99.90
6375;DHT22;35400;45.472;-122.822;2023-09-12T11:12:03;15.80;99.90
6375;DHT22;35400;45.472;-122.822;2023-09-12T11:14:31;15.70;99.90
6375;DHT22;35400;45.472;-122.822;2023-09-12T11:19:44;15.60;99.90
6375;DHT22;35400;45.472;-122.822;2023-09-12T11:22:26;15.60;99.90
6375;DHT22;35400;45.472;-122.822;2023-09-12T11:24:54;15.50;99.90
6375;DHT22;35400;45.472;-122.822;2023-09-12T11:27:30;15.50;99.90
6375;DHT22;35400;45.472;-122.822;2023-09-12T11:30:04;15.40;99.90
6375;DHT22;35400;45.472;-122.822;2023-09-12T11:32:34;15.30;99.90
6375;DHT22;35400;45.472;-122.822;2023-09-12T11:35:06;15.30;99.90
6375;DHT22;35400;45.472;-122.822;2023-09-12T11:37:33;15.20;99.90
6375;DHT22;35400;45.472;-122.822;2023-09-12T11:42:43;15.10;99.90
6375;DHT22;35400;45.472;-122.822;2023-09-12T11:45:12;15.10;99.90
6375;DHT22;35400;45.472;-122.822;2023-09-12T11:47:44;15.00;99.90
6375;DHT22;35400;45.472;-122.822;2023-09-12T11:50:33;14.90;99.90
6375;DHT22;35400;45.472;-122.822;2023-09-12T11:53:08;14.90;99.90
6375;DHT22;35400;45.472;-122.822;2023-09-12T11:55:44;14.80;99.90
6375;DHT22;35400;45.472;-122.822;2023-09-12T11:58:13;14.80;99.90
6375;DHT22;35400;45.472;-122.822;2023-09-12T12:00:49;14.70;99.90
6375;DHT22;35400;45.472;-122.822;2023-09-12T12:03:16;14.70;99.90
6375;DHT22;35400;45.472;-122.822;2023-09-12T12:05:43;14.60;99.90
6375;DHT22;35400;45.472;-122.822;2023-09-12T12:08:11;14.60;99.90
6375;DHT22;35400;45.472;-122.822;2023-09-12T12:10:39;14.50;99.90
6375;DHT22;35400;45.472;-122.822;2023-09-12T12:13:20;14.50;99.90
6375;DHT22;35400;45.472;-122.822;2023-09-12T12:15:47;14.40;99.90
6375;DHT22;35400;45.472;-122.822;2023-09-12T12:18:14;14.40;99.90
6375;DHT22;35400;45.472;-122.822;2023-09-12T12:20:42;14.30;99.90
6375;DHT22;35400;45.472;-122.822;2023-09-12T12:23:08;14.30;99.90
6375;DHT22;35400;45.472;-122.822;2023-09-12T12:25:36;14.20;99.90
6375;DHT22;35400;45.472;-122.822;2023-09-12T12:28:03;14.20;99.90
6375;DHT22;35400;45.472;-122.822;2023-09-12T12:30:35;14.10;99.90
6375;DHT22;35400;45.472;-122.822;2023-09-12T12:33:07;14.00;99.90
6375;DHT22;35400;45.472;-122.822;2023-09-12T12:35:34;14.00;99.90
6375;DHT22;35400;45.472;-122.822;2023-09-12T12:38:03;14.00;99.90
6375;DHT22;35400;45.472;-122.822;2023-09-12T12:40:30;13.90;99.90
6375;DHT22;35400;45.472;-122.822;2023-09-12T12:42:57;13.90;99.90
6375;DHT22;35400;45.472;-122.822;2023-09-12T12:45:24;13.80;99.90
6375;DHT22;35400;45.472;-122.822;2023-09-12T12:48:01;13.80;99.90
6375;DHT22;35400;45.472;-122.822;2023-09-12T12:50:28;13.70;99.90
6375;DHT22;35400;45.472;-122.822;2023-09-12T12:52:55;13.70;99.90
6375;DHT22;35400;45.472;-122.822;2023-09-12T12:55:26;13.60;99.90
6375;DHT22;35400;45.472;-122.822;2023-09-12T12:57:53;13.60;99.90
6375;DHT22;35400;45.472;-122.822;2023-09-12T13:00:19;13.50;99.90
6375;DHT22;35400;45.472;-122.822;2023-09-12T13:02:47;13.50;99.90
6375;DHT22;35400;45.472;-122.822;2023-09-12T13:05:21;13.50;99.90
6375;DHT22;35400;45.472;-122.822;2023-09-12T13:07:49;13.40;99.90
6375;DHT22;35400;45.472;-122.822;2023-09-12T13:10:17;13.40;99.90
6375;DHT22;35400;45.472;-122.822;2023-09-12T13:12:44;13.40;99.90
6375;DHT22;35400;45.472;-122.822;2023-09-12T13:15:15;13.30;99.90
6375;DHT22;35400;45.472;-122.822;2023-09-12T13:17:44;13.30;99.90
6375;DHT22;35400;45.472;-122.822;2023-09-12T13:20:11;13.20;99.90
6375;DHT22;35400;45.472;-122.822;2023-09-12T13:22:38;13.20;99.90
6375;DHT22;35400;45.472;-122.822;2023-09-12T13:25:06;13.20;99.90
6375;DHT22;35400;45.472;-122.822;2023-09-12T13:27:33;13.10;99.90
6375;DHT22;35400;45.472;-122.822;2023-09-12T13:30:00;13.10;99.90
6375;DHT22;35400;45.472;-122.822;2023-09-12T13:32:27;13.00;99.90
6375;DHT22;35400;45.472;-122.822;2023-09-12T13:34:54;13.00;99.90
6375;DHT22;35400;45.472;-122.822;2023-09-12T13:37:21;13.00;99.90
6375;DHT22;35400;45.472;-122.822;2023-09-12T13:39:47;12.90;99.90
6375;DHT22;35400;45.472;-122.822;2023-09-12T13:42:16;12.90;99.90
6375;DHT22;35400;45.472;-122.822;2023-09-12T13:44:47;12.90;99.90
6375;DHT22;35400;45.472;-122.822;2023-09-12T13:47:14;12.80;99.90
6375;DHT22;35400;45.472;-122.822;2023-09-12T13:49:48;12.80;99.90
6375;DHT22;35400;45.472;-122.822;2023-09-12T13:52:21;12.80;99.90
6375;DHT22;35400;45.472;-122.822;2023-09-12T13:54:48;12.70;99.90
6375;DHT22;35400;45.472;-122.822;2023-09-12T13:57:16;12.70;99.90
6375;DHT22;35400;45.472;-122.822;2023-09-12T13:59:43;12.70;99.90
6375;DHT22;35400;45.472;-122.822;2023-09-12T14:02:10;12.70;99.90
6375;DHT22;35400;45.472;-122.822;2023-09-12T14:04:37;12.70;99.90
6375;DHT22;35400;45.472;-122.822;2023-09-12T14:07:04;12.60;99.90
6375;DHT22;35400;45.472;-122.822;2023-09-12T14:09:31;12.60;99.90
6375;DHT22;35400;45.472;-122.822;2023-09-12T14:11:57;12.60;99.90
6375;DHT22;35400;45.472;-122.822;2023-09-12T14:14:24;12.60;99.90
6375;DHT22;35400;45.472;-122.822;2023-09-12T14:16:51;12.60;99.90
6375;DHT22;35400;45.472;-122.822;2023-09-12T14:19:18;12.60;99.90
6375;DHT22;35400;45.472;-122.822;2023-09-12T14:21:45;12.50;99.90
6375;DHT22;35400;45.472;-122.822;2023-09-12T14:24:12;12.60;99.90
6375;DHT22;35400;45.472;-122.822;2023-09-12T14:26:39;12.60;99.90
6375;DHT22;35400;45.472;-122.822;2023-09-12T14:29:06;12.60;99.90
6375;DHT22;35400;45.472;-122.822;2023-09-12T14:31:32;12.60;99.90
6375;DHT22;35400;45.472;-122.822;2023-09-12T14:33:59;12.70;99.90
6375;DHT22;35400;45.472;-122.822;2023-09-12T14:36:26;12.80;99.90
6375;DHT22;35400;45.472;-122.822;2023-09-12T14:38:53;12.90;99.90
6375;DHT22;35400;45.472;-122.822;2023-09-12T14:41:19;13.00;99.90
6375;DHT22;35400;45.472;-122.822;2023-09-12T14:43:46;13.10;99.90
6375;DHT22;35400;45.472;-122.822;2023-09-12T14:46:13;13.30;99.90
6375;DHT22;35400;45.472;-122.822;2023-09-12T14:48:40;13.40;99.90
6375;DHT22;35400;45.472;-122.822;2023-09-12T14:51:06;13.40;99.90
6375;DHT22;35400;45.472;-122.822;2023-09-12T14:53:33;13.60;99.90
6375;DHT22;35400;45.472;-122.822;2023-09-12T14:56:00;13.60;99.90
6375;DHT22;35400;45.472;-122.822;2023-09-12T14:58:27;13.70;99.90
6375;DHT22;35400;45.472;-122.822;2023-09-12T15:00:54;13.80;99.90
6375;DHT22;35400;45.472;-122.822;2023-09-12T15:03:21;13.80;99.90
6375;DHT22;35400;45.472;-122.822;2023-09-12T15:05:48;13.90;99.90
6375;DHT22;35400;45.472;-122.822;2023-09-12T15:08:15;13.90;99.90
6375;DHT22;35400;45.472;-122.822;2023-09-12T15:10:41;14.00;99.90
6375;DHT22;35400;45.472;-122.822;2023-09-12T15:13:08;14.10;99.90
6375;DHT22;35400;45.472;-122.822;2023-09-12T15:15:36;14.20;99.90
6375;DHT22;35400;45.472;-122.822;2023-09-12T15:18:03;14.30;99.90
6375;DHT22;35400;45.472;-122.822;2023-09-12T15:20:31;14.50;99.90
6375;DHT22;35400;45.472;-122.822;2023-09-12T15:22:58;14.60;99.90
6375;DHT22;35400;45.472;-122.822;2023-09-12T15:25:25;14.70;99.90
6375;DHT22;35400;45.472;-122.822;2023-09-12T15:27:51;14.80;99.90